sensor_id;sensor_type;location;lat;lon;timestamp;P1;durP1;ratioP1;P2;durP2;ratioP2
4517;SDS011;2271;49.464;11.070;2023-03-03T00:01:35;25.07;;;14.10;;
4517;SDS011;2271;49.464;11.070;2023-03-03T00:04:01;21.87;;;13.13;;
4517;SDS011;2271;49.464;11.070;2023-03-03T00:06:26;28.57;;;14.17;;
4517;SDS011;2271;49.464;11.070;2023-03-03T00:08:53;22.33;;;13.33;;
4517;SDS011;2271;49.464;11.070;2023-03-03T00:11:19;23.77;;;13.57;;
4517;SDS011;2271;49.464;11.070;2023-03-03T00:13:49;22.43;;;12.90;;
4517;SDS011;2271;49.464;11.070;2023-03-03T00:19:01;24.00;;;12.77;;
4517;SDS011;2271;49.464;11.070;2023-03-03T00:21:32;30.03;;;14.17;;
4517;SDS011;2271;49.464;11.070;2023-03-03T00:24:21;19.77;;;13.67;;
4517;SDS011;2271;49.464;11.070;2023-03-03T00:29:34;20.43;;;12.10;;
4517;SDS011;2271;49.464;11.070;2023-03-03T00:35:01;24.47;;;12.57;;
4517;SDS011;2271;49.464;11.070;2023-03-03T00:37:47;20.57;;;11.80;;
4517;SDS011;2271;49.464;11.070;2023-03-03T00:40:22;24.13;;;12.90;;
4517;SDS011;2271;49.464;11.070;2023-03-03T00:42:51;26.53;;;13.63;;
4517;SDS011;2271;49.464;11.070;2023-03-03T00:47:47;25.97;;;12.67;;
4517;SDS011;2271;49.464;11.070;2023-03-03T00:50:17;23.60;;;12.73;;
4517;SDS011;2271;49.464;11.070;2023-03-03T00:52:52;21.30;;;13.67;;
4517;SDS011;2271;49.464;11.070;2023-03-03T00:55:25;25.27;;;12.87;;
4517;SDS011;2271;49.464;11.070;2023-03-03T00:57:51;20.63;;;11.53;;
4517;SDS011;2271;49.464;11.070;2023-03-03T01:00:17;26.73;;;11.60;;
4517;SDS011;2271;49.464;11.070;2023-03-03T01:02:43;18.90;;;12.87;;
4517;SDS011;2271;49.464;11.070;2023-03-03T01:05:11;23.80;;;12.20;;
4517;SDS011;2271;49.464;11.070;2023-03-03T01:07:38;23.57;;;12.73;;
4517;SDS011;2271;49.464;11.070;2023-03-03T01:10:04;21.33;;;12.70;;
4517;SDS011;2271;49.464;11.070;2023-03-03T01:12:30;20.33;;;12.03;;
4517;SDS011;2271;49.464;11.070;2023-03-03T01:14:56;25.27;;;12.70;;
4517;SDS011;2271;49.464;11.070;2023-03-03T01:17:22;23.07;;;13.00;;
4517;SDS011;2271;49.464;11.070;2023-03-03T01:19:47;22.10;;;11.47;;
4517;SDS011;2271;49.464;11.070;2023-03-03T01:22:13;20.90;;;12.20;;
4517;SDS011;2271;49.464;11.070;2023-03-03T01:24:38;18.87;;;11.93;;
4517;SDS011;2271;49.464;11.070;2023-03-03T01:27:04;17.87;;;11.33;;
4517;SDS011;2271;49.464;11.070;2023-03-03T01:29:30;19.73;;;11.57;;
4517;SDS011;2271;49.464;11.070;2023-03-03T01:31:55;20.70;;;11.53;;
4517;SDS011;2271;49.464;11.070;2023-03-03T01:34:21;21.73;;;12.40;;
4517;SDS011;2271;49.464;11.070;2023-03-03T01:36:47;18.67;;;10.63;;
4517;SDS011;2271;49.464;11.070;2023-03-03T01:39:12;20.00;;;11.60;;
4517;SDS011;2271;49.464;11.070;2023-03-03T01:41:38;21.33;;;10.80;;
4517;SDS011;2271;49.464;11.070;2023-03-03T01:44:04;20.83;;;12.17;;
4517;SDS011;2271;49.464;11.070;2023-03-03T01:46:31;21.03;;;11.67;;
4517;SDS011;2271;49.464;11.070;2023-03-03T01:49:06;17.93;;;11.27;;
4517;SDS011;2271;49.464;11.070;2023-03-03T01:51:50;25.57;;;11.87;;
4517;SDS011;2271;49.464;11.070;2023-03-03T01:54:20;22.40;;;11.17;;
4517;SDS011;2271;49.464;11.070;2023-03-03T01:56:56;19.93;;;10.53;;
4517;SDS011;2271;49.464;11.070;2023-03-03T01:59:26;22.37;;;10.70;;
4517;SDS011;2271;49.464;11.070;2023-03-03T02:01:56;15.90;;;10.13;;
4517;SDS011;2271;49.464;11.070;2023-03-03T02:04:22;17.90;;;11.47;;
4517;SDS011;2271;49.464;11.070;2023-03-03T02:06:51;18.60;;;10.80;;
4517;SDS011;2271;49.464;11.070;2023-03-03T02:12:15;20.33;;;11.33;;
4517;SDS011;2271;49.464;11.070;2023-03-03T02:14:43;16.63;;;10.67;;
4517;SDS011;2271;49.464;11.070;2023-03-03T02:17:08;16.30;;;10.20;;
4517;SDS011;2271;49.464;11.070;2023-03-03T02:19:41;14.73;;;10.37;;
4517;SDS011;2271;49.464;11.070;2023-03-03T02:22:11;18.57;;;10.57;;
4517;SDS011;2271;49.464;11.070;2023-03-03T02:24:42;20.07;;;11.80;;
4517;SDS011;2271;49.464;11.070;2023-03-03T02:27:13;19.27;;;10.87;;
4517;SDS011;2271;49.464;11.070;2023-03-03T02:29:39;20.23;;;11.27;;
4517;SDS011;2271;49.464;11.070;2023-03-03T02:32:04;18.97;;;10.20;;
4517;SDS011;2271;49.464;11.070;2023-03-03T02:34:30;21.33;;;11.97;;
4517;SDS011;2271;49.464;11.070;2023-03-03T02:37:07;20.07;;;11.37;;
4517;SDS011;2271;49.464;11.070;2023-03-03T02:39:33;17.10;;;10.50;;
4517;SDS011;2271;49.464;11.070;2023-03-03T02:42:08;17.57;;;10.00;;
4517;SDS011;2271;49.464;11.070;2023-03-03T02:44:43;17.87;;;10.17;;
4517;SDS011;2271;49.464;11.070;2023-03-03T02:47:10;21.90;;;10.77;;
4517;SDS011;2271;49.464;11.070;2023-03-03T02:49:35;18.77;;;10.83;;
4517;SDS011;2271;49.464;11.070;2023-03-03T02:52:02;20.00;;;11.07;;
4517;SDS011;2271;49.464;11.070;2023-03-03T02:54:30;18.80;;;10.43;;
4517;SDS011;2271;49.464;11.070;2023-03-03T02:56:56;20.13;;;12.03;;
4517;SDS011;2271;49.464;11.070;2023-03-03T02:59:23;19.17;;;11.70;;
4517;SDS011;2271;49.464;11.070;2023-03-03T03:01:49;18.37;;;10.77;;
4517;SDS011;2271;49.464;11.070;2023-03-03T03:04:22;21.73;;;10.93;;
4517;SDS011;2271;49.464;11.070;2023-03-03T03:06:49;16.87;;;10.67;;
4517;SDS011;2271;49.464;11.070;2023-03-03T03:09:16;17.57;;;11.13;;
4517;SDS011;2271;49.464;11.070;2023-03-03T03:11:43;21.40;;;12.80;;
4517;SDS011;2271;49.464;11.070;2023-03-03T03:14:09;18.63;;;10.70;;
4517;SDS011;2271;49.464;11.070;2023-03-03T03:16:36;18.27;;;10.40;;
4517;SDS011;2271;49.464;11.070;2023-03-03T03:19:02;18.50;;;11.30;;
4517;SDS011;2271;49.464;11.070;2023-03-03T03:21:29;19.47;;;11.13;;
4517;SDS011;2271;49.464;11.070;2023-03-03T03:23:55;15.60;;;10.53;;
4517;SDS011;2271;49.464;11.070;2023-03-03T03:26:21;17.13;;;9.80;;
4517;SDS011;2271;49.464;11.070;2023-03-03T03:28:50;19.87;;;10.03;;
4517;SDS011;2271;49.464;11.070;2023-03-03T03:31:16;20.67;;;10.60;;
4517;SDS011;2271;49.464;11.070;2023-03-03T03:33:44;17.57;;;10.53;;
4517;SDS011;2271;49.464;11.070;2023-03-03T03:36:10;16.37;;;10.47;;
4517;SDS011;2271;49.464;11.070;2023-03-03T03:38:36;20.73;;;10.63;;
4517;SDS011;2271;49.464;11.070;2023-03-03T03:41:02;19.53;;;10.93;;
4517;SDS011;2271;49.464;11.070;2023-03-03T03:43:29;18.37;;;11.07;;
4517;SDS011;2271;49.464;11.070;2023-03-03T03:45:55;22.10;;;10.63;;
4517;SDS011;2271;49.464;11.070;2023-03-03T03:48:20;18.80;;;10.63;;
4517;SDS011;2271;49.464;11.070;2023-03-03T03:50:49;18.20;;;11.17;;
4517;SDS011;2271;49.464;11.070;2023-03-03T03:53:15;21.50;;;10.63;;
4517;SDS011;2271;49.464;11.070;2023-03-03T03:55:43;16.90;;;10.37;;
4517;SDS011;2271;49.464;11.070;2023-03-03T03:58:13;24.57;;;10.07;;
4517;SDS011;2271;49.464;11.070;2023-03-03T04:00:41;20.40;;;11.67;;
4517;SDS011;2271;49.464;11.070;2023-03-03T04:03:07;18.60;;;10.80;;
4517;SDS011;2271;49.464;11.070;2023-03-03T04:05:33;16.93;;;10.47;;
4517;SDS011;2271;49.464;11.070;2023-03-03T04:07:59;21.97;;;11.33;;
4517;SDS011;2271;49.464;11.070;2023-03-03T04:10:24;20.07;;;10.80;;
4517;SDS011;2271;49.464;11.070;2023-03-03T04:12:50;18.63;;;10.83;;
4517;SDS011;2271;49.464;11.070;2023-03-03T04:15:16;24.70;;;10.93;;
4517;SDS011;2271;49.464;11.070;2023-03-03T04:17:42;17.20;;;10.87;;
4517;SDS011;2271;49.464;11.070;2023-03-03T04:20:09;24.07;;;11.10;;
4517;SDS011;2271;49.464;11.070;2023-03-03T04:22:37;20.67;;;11.40;;
4517;SDS011;2271;49.464;11.070;2023-03-03T04:25:03;21.43;;;11.13;;
4517;SDS011;2271;49.464;11.070;2023-03-03T04:27:32;20.47;;;11.00;;
4517;SDS011;2271;49.464;11.070;2023-03-03T04:29:58;18.13;;;10.07;;
4517;SDS011;2271;49.464;11.070;2023-03-03T04:32:24;17.27;;;10.27;;
4517;SDS011;2271;49.464;11.070;2023-03-03T04:34:49;18.57;;;10.60;;
4517;SDS011;2271;49.464;11.070;2023-03-03T04:37:15;19.17;;;11.10;;
4517;SDS011;2271;49.464;11.070;2023-03-03T04:39:41;19.83;;;11.27;;
4517;SDS011;2271;49.464;11.070;2023-03-03T04:42:06;17.40;;;10.27;;
4517;SDS011;2271;49.464;11.070;2023-03-03T04:44:32;19.33;;;10.03;;
4517;SDS011;2271;49.464;11.070;2023-03-03T04:46:57;21.03;;;12.17;;
4517;SDS011;2271;49.464;11.070;2023-03-03T04:49:23;22.00;;;10.77;;
4517;SDS011;2271;49.464;11.070;2023-03-03T04:51:49;20.70;;;10.87;;
4517;SDS011;2271;49.464;11.070;2023-03-03T04:54:14;18.13;;;11.00;;
4517;SDS011;2271;49.464;11.070;2023-03-03T04:56:40;22.10;;;12.13;;
4517;SDS011;2271;49.464;11.070;2023-03-03T04:59:06;20.07;;;10.83;;
4517;SDS011;2271;49.464;11.070;2023-03-03T05:01:31;22.63;;;11.73;;
4517;SDS011;2271;49.464;11.070;2023-03-03T05:03:57;21.37;;;12.00;;
4517;SDS011;2271;49.464;11.070;2023-03-03T05:06:22;19.63;;;10.13;;
4517;SDS011;2271;49.464;11.070;2023-03-03T05:08:48;13.90;;;8.30;;
4517;SDS011;2271;49.464;11.070;2023-03-03T05:11:14;21.47;;;11.43;;
4517;SDS011;2271;49.464;11.070;2023-03-03T05:13:39;23.13;;;13.60;;
4517;SDS011;2271;49.464;11.070;2023-03-03T05:16:05;21.53;;;12.17;;
4517;SDS011;2271;49.464;11.070;2023-03-03T05:18:31;26.40;;;11.90;;
4517;SDS011;2271;49.464;11.070;2023-03-03T05:20:57;18.50;;;10.83;;
4517;SDS011;2271;49.464;11.070;2023-03-03T05:23:22;20.80;;;11.57;;
4517;SDS011;2271;49.464;11.070;2023-03-03T05:25:49;17.40;;;11.70;;
4517;SDS011;2271;49.464;11.070;2023-03-03T05:28:15;21.67;;;12.40;;
4517;SDS011;2271;49.464;11.070;2023-03-03T05:30:42;35.27;;;13.07;;
4517;SDS011;2271;49.464;11.070;2023-03-03T05:33:09;21.93;;;11.67;;
4517;SDS011;2271;49.464;11.070;2023-03-03T05:35:38;21.27;;;12.10;;
4517;SDS011;2271;49.464;11.070;2023-03-03T05:38:03;21.00;;;12.67;;
4517;SDS011;2271;49.464;11.070;2023-03-03T05:40:29;20.30;;;11.27;;
4517;SDS011;2271;49.464;11.070;2023-03-03T05:42:55;21.40;;;12.73;;
4517;SDS011;2271;49.464;11.070;2023-03-03T05:45:21;23.37;;;12.97;;
4517;SDS011;2271;49.464;11.070;2023-03-03T05:47:48;20.50;;;12.03;;
4517;SDS011;2271;49.464;11.070;2023-03-03T05:50:14;22.90;;;11.83;;
4517;SDS011;2271;49.464;11.070;2023-03-03T05:52:41;23.13;;;12.53;;
4517;SDS011;2271;49.464;11.070;2023-03-03T05:55:07;22.73;;;11.73;;
4517;SDS011;2271;49.464;11.070;2023-03-03T05:57:33;25.80;;;12.87;;
4517;SDS011;2271;49.464;11.070;2023-03-03T06:00:00;30.27;;;14.10;;
4517;SDS011;2271;49.464;11.070;2023-03-03T06:02:29;26.30;;;13.33;;
4517;SDS011;2271;49.464;11.070;2023-03-03T06:04:55;22.97;;;13.00;;
4517;SDS011;2271;49.464;11.070;2023-03-03T06:07:21;23.20;;;13.53;;
4517;SDS011;2271;49.464;11.070;2023-03-03T06:09:47;24.00;;;12.50;;
4517;SDS011;2271;49.464;11.070;2023-03-03T06:12:12;22.67;;;13.93;;
4517;SDS011;2271;49.464;11.070;2023-03-03T06:14:38;32.60;;;14.47;;
4517;SDS011;2271;49.464;11.070;2023-03-03T06:17:04;23.23;;;13.27;;
4517;SDS011;2271;49.464;11.070;2023-03-03T06:19:30;26.27;;;13.83;;
4517;SDS011;2271;49.464;11.070;2023-03-03T06:21:56;20.63;;;13.03;;
4517;SDS011;2271;49.464;11.070;2023-03-03T06:24:22;27.10;;;13.47;;
4517;SDS011;2271;49.464;11.070;2023-03-03T06:26:49;31.53;;;14.57;;
4517;SDS011;2271;49.464;11.070;2023-03-03T06:29:15;28.87;;;14.17;;
4517;SDS011;2271;49.464;11.070;2023-03-03T06:31:41;27.60;;;13.60;;
4517;SDS011;2271;49.464;11.070;2023-03-03T06:34:07;36.33;;;15.67;;
4517;SDS011;2271;49.464;11.070;2023-03-03T06:36:33;26.43;;;14.13;;
4517;SDS011;2271;49.464;11.070;2023-03-03T06:38:58;32.70;;;15.77;;
4517;SDS011;2271;49.464;11.070;2023-03-03T06:41:25;25.27;;;14.33;;
4517;SDS011;2271;49.464;11.070;2023-03-03T06:43:51;26.23;;;14.07;;
4517;SDS011;2271;49.464;11.070;2023-03-03T06:46:16;29.40;;;15.00;;
4517;SDS011;2271;49.464;11.070;2023-03-03T06:48:42;32.67;;;16.97;;
4517;SDS011;2271;49.464;11.070;2023-03-03T06:54:10;36.30;;;14.23;;
4517;SDS011;2271;49.464;11.070;2023-03-03T06:56:38;37.07;;;16.27;;
4517;SDS011;2271;49.464;11.070;2023-03-03T06:59:09;36.03;;;16.43;;
4517;SDS011;2271;49.464;11.070;2023-03-03T07:01:44;29.23;;;14.93;;
4517;SDS011;2271;49.464;11.070;2023-03-03T07:04:27;38.23;;;14.87;;
4517;SDS011;2271;49.464;11.070;2023-03-03T07:07:41;29.53;;;15.90;;
4517;SDS011;2271;49.464;11.070;2023-03-03T07:09:46;28.93;;;15.70;;
4517;SDS011;2271;49.464;11.070;2023-03-03T07:12:15;39.13;;;17.60;;
4517;SDS011;2271;49.464;11.070;2023-03-03T07:14:44;32.43;;;15.53;;
4517;SDS011;2271;49.464;11.070;2023-03-03T07:17:13;26.23;;;13.63;;
4517;SDS011;2271;49.464;11.070;2023-03-03T07:19:41;34.37;;;16.03;;
4517;SDS011;2271;49.464;11.070;2023-03-03T07:24:45;31.93;;;16.00;;
4517;SDS011;2271;49.464;11.070;2023-03-03T07:27:25;31.33;;;16.37;;
4517;SDS011;2271;49.464;11.070;2023-03-03T07:29:53;29.03;;;15.77;;
4517;SDS011;2271;49.464;11.070;2023-03-03T07:32:39;31.43;;;15.40;;
4517;SDS011;2271;49.464;11.070;2023-03-03T07:40:47;29.00;;;16.07;;
4517;SDS011;2271;49.464;11.070;2023-03-03T07:43:23;49.40;;;17.60;;
4517;SDS011;2271;49.464;11.070;2023-03-03T07:48:41;30.00;;;16.37;;
4517;SDS011;2271;49.464;11.070;2023-03-03T07:51:26;35.00;;;16.40;;
4517;SDS011;2271;49.464;11.070;2023-03-03T07:54:00;32.47;;;17.30;;
4517;SDS011;2271;49.464;11.070;2023-03-03T07:57:34;28.53;;;15.50;;
4517;SDS011;2271;49.464;11.070;2023-03-03T07:59:59;35.03;;;16.80;;
4517;SDS011;2271;49.464;11.070;2023-03-03T08:02:52;29.20;;;16.27;;
4517;SDS011;2271;49.464;11.070;2023-03-03T08:05:34;40.90;;;17.50;;
4517;SDS011;2271;49.464;11.070;2023-03-03T08:11:01;34.73;;;17.70;;
4517;SDS011;2271;49.464;11.070;2023-03-03T08:18:34;27.90;;;15.83;;
4517;SDS011;2271;49.464;11.070;2023-03-03T08:21:21;31.23;;;15.67;;
4517;SDS011;2271;49.464;11.070;2023-03-03T08:23:51;35.40;;;17.77;;
4517;SDS011;2271;49.464;11.070;2023-03-03T08:26:21;35.37;;;17.27;;
4517;SDS011;2271;49.464;11.070;2023-03-03T08:28:48;39.23;;;16.53;;
4517;SDS011;2271;49.464;11.070;2023-03-03T08:31:13;26.10;;;15.80;;
4517;SDS011;2271;49.464;11.070;2023-03-03T08:33:41;30.50;;;16.57;;
4517;SDS011;2271;49.464;11.070;2023-03-03T08:36:07;36.40;;;17.00;;
4517;SDS011;2271;49.464;11.070;2023-03-03T08:38:33;30.83;;;16.07;;
4517;SDS011;2271;49.464;11.070;2023-03-03T08:40:59;30.33;;;16.27;;
4517;SDS011;2271;49.464;11.070;2023-03-03T08:43:25;40.00;;;17.53;;
4517;SDS011;2271;49.464;11.070;2023-03-03T08:45:51;32.97;;;17.30;;
4517;SDS011;2271;49.464;11.070;2023-03-03T08:48:18;32.40;;;16.13;;
4517;SDS011;2271;49.464;11.070;2023-03-03T08:50:45;26.70;;;14.67;;
4517;SDS011;2271;49.464;11.070;2023-03-03T08:53:11;26.87;;;14.70;;
4517;SDS011;2271;49.464;11.070;2023-03-03T08:55:38;30.90;;;16.07;;
4517;SDS011;2271;49.464;11.070;2023-03-03T08:58:04;29.30;;;15.07;;
4517;SDS011;2271;49.464;11.070;2023-03-03T09:00:30;32.13;;;16.47;;
4517;SDS011;2271;49.464;11.070;2023-03-03T09:02:56;30.57;;;16.13;;
4517;SDS011;2271;49.464;11.070;2023-03-03T09:05:23;32.40;;;17.13;;
4517;SDS011;2271;49.464;11.070;2023-03-03T09:07:49;32.40;;;16.63;;
4517;SDS011;2271;49.464;11.070;2023-03-03T09:10:18;32.70;;;16.93;;
4517;SDS011;2271;49.464;11.070;2023-03-03T09:12:51;38.53;;;17.90;;
4517;SDS011;2271;49.464;11.070;2023-03-03T09:15:25;29.50;;;16.00;;
4517;SDS011;2271;49.464;11.070;2023-03-03T09:18:04;30.00;;;17.37;;
4517;SDS011;2271;49.464;11.070;2023-03-03T09:20:43;29.33;;;15.93;;
4517;SDS011;2271;49.464;11.070;2023-03-03T09:26:27;30.37;;;15.07;;
4517;SDS011;2271;49.464;11.070;2023-03-03T09:31:52;32.90;;;16.63;;
4517;SDS011;2271;49.464;11.070;2023-03-03T09:37:20;31.80;;;15.67;;
4517;SDS011;2271;49.464;11.070;2023-03-03T09:39:49;31.10;;;17.07;;
4517;SDS011;2271;49.464;11.070;2023-03-03T09:50:45;29.50;;;16.47;;
4517;SDS011;2271;49.464;11.070;2023-03-03T10:01:47;29.20;;;16.33;;
4517;SDS011;2271;49.464;11.070;2023-03-03T10:07:25;30.03;;;17.00;;
4517;SDS011;2271;49.464;11.070;2023-03-03T10:10:22;28.27;;;16.20;;
4517;SDS011;2271;49.464;11.070;2023-03-03T10:21:08;26.40;;;15.40;;
4517;SDS011;2271;49.464;11.070;2023-03-03T10:23:42;27.50;;;15.10;;
4517;SDS011;2271;49.464;11.070;2023-03-03T10:27:06;26.73;;;15.80;;
4517;SDS011;2271;49.464;11.070;2023-03-03T10:37:20;31.67;;;16.40;;
4517;SDS011;2271;49.464;11.070;2023-03-03T10:43:39;33.33;;;15.80;;
4517;SDS011;2271;49.464;11.070;2023-03-03T10:57:51;28.30;;;15.27;;
4517;SDS011;2271;49.464;11.070;2023-03-03T11:00:48;27.33;;;14.77;;
4517;SDS011;2271;49.464;11.070;2023-03-03T11:14:12;28.37;;;13.97;;
4517;SDS011;2271;49.464;11.070;2023-03-03T11:33:06;25.57;;;14.27;;
4517;SDS011;2271;49.464;11.070;2023-03-03T11:35:50;21.75;;;13.27;;
4517;SDS011;2271;49.464;11.070;2023-03-03T11:42:10;26.90;;;14.23;;
4517;SDS011;2271;49.464;11.070;2023-03-03T11:44:28;23.58;;;13.75;;
4517;SDS011;2271;49.464;11.070;2023-03-03T11:50:01;23.52;;;13.70;;
4517;SDS011;2271;49.464;11.070;2023-03-03T11:52:39;24.38;;;13.63;;
4517;SDS011;2271;49.464;11.070;2023-03-03T11:55:28;25.80;;;13.45;;
4517;SDS011;2271;49.464;11.070;2023-03-03T12:00:59;20.02;;;12.00;;
4517;SDS011;2271;49.464;11.070;2023-03-03T12:03:57;20.85;;;12.75;;
4517;SDS011;2271;49.464;11.070;2023-03-03T12:17:35;20.02;;;12.32;;
4517;SDS011;2271;49.464;11.070;2023-03-03T12:22:44;23.38;;;11.63;;
4517;SDS011;2271;49.464;11.070;2023-03-03T12:25:48;16.03;;;11.27;;
4517;SDS011;2271;49.464;11.070;2023-03-03T12:28:24;21.48;;;12.73;;
4517;SDS011;2271;49.464;11.070;2023-03-03T12:31:12;19.77;;;12.50;;
4517;SDS011;2271;49.464;11.070;2023-03-03T12:33:50;17.98;;;11.68;;
4517;SDS011;2271;49.464;11.070;2023-03-03T12:41:39;18.65;;;11.50;;
4517;SDS011;2271;49.464;11.070;2023-03-03T12:54:56;17.90;;;10.77;;
4517;SDS011;2271;49.464;11.070;2023-03-03T13:00:37;15.38;;;11.02;;
4517;SDS011;2271;49.464;11.070;2023-03-03T13:03:48;17.77;;;11.63;;
4517;SDS011;2271;49.464;11.070;2023-03-03T13:08:47;17.38;;;11.90;;
4517;SDS011;2271;49.464;11.070;2023-03-03T13:14:18;18.83;;;12.10;;
4517;SDS011;2271;49.464;11.070;2023-03-03T13:19:31;17.20;;;10.80;;
4517;SDS011;2271;49.464;11.070;2023-03-03T13:22:30;11.20;;;8.13;;
4517;SDS011;2271;49.464;11.070;2023-03-03T13:27:45;17.73;;;11.02;;
4517;SDS011;2271;49.464;11.070;2023-03-03T13:35:31;16.23;;;10.30;;
4517;SDS011;2271;49.464;11.070;2023-03-03T13:38:20;18.63;;;10.95;;
4517;SDS011;2271;49.464;11.070;2023-03-03T13:41:01;14.95;;;9.15;;
4517;SDS011;2271;49.464;11.070;2023-03-03T13:51:38;12.88;;;8.48;;
4517;SDS011;2271;49.464;11.070;2023-03-03T13:56:53;15.52;;;9.27;;
4517;SDS011;2271;49.464;11.070;2023-03-03T13:59:43;15.07;;;9.02;;
4517;SDS011;2271;49.464;11.070;2023-03-03T14:02:22;14.38;;;9.23;;
4517;SDS011;2271;49.464;11.070;2023-03-03T14:04:53;16.67;;;9.93;;
4517;SDS011;2271;49.464;11.070;2023-03-03T14:07:33;19.42;;;9.27;;
4517;SDS011;2271;49.464;11.070;2023-03-03T14:10:12;14.45;;;8.25;;
4517;SDS011;2271;49.464;11.070;2023-03-03T14:12:59;15.10;;;8.70;;
4517;SDS011;2271;49.464;11.070;2023-03-03T14:21:18;19.77;;;7.90;;
4517;SDS011;2271;49.464;11.070;2023-03-03T14:23:57;13.30;;;7.60;;
4517;SDS011;2271;49.464;11.070;2023-03-03T14:26:47;13.63;;;7.05;;
4517;SDS011;2271;49.464;11.070;2023-03-03T14:31:46;13.90;;;8.23;;
4517;SDS011;2271;49.464;11.070;2023-03-03T14:34:24;12.90;;;8.30;;
4517;SDS011;2271;49.464;11.070;2023-03-03T14:36:59;14.95;;;8.65;;
4517;SDS011;2271;49.464;11.070;2023-03-03T14:39:50;14.43;;;8.00;;
4517;SDS011;2271;49.464;11.070;2023-03-03T14:42:36;14.75;;;7.20;;
4517;SDS011;2271;49.464;11.070;2023-03-03T14:48:17;14.50;;;9.02;;
4517;SDS011;2271;49.464;11.070;2023-03-03T14:50:51;19.52;;;10.07;;
4517;SDS011;2271;49.464;11.070;2023-03-03T14:53:35;14.25;;;9.07;;
4517;SDS011;2271;49.464;11.070;2023-03-03T14:56:15;19.02;;;9.30;;
4517;SDS011;2271;49.464;11.070;2023-03-03T14:58:46;12.52;;;8.13;;
4517;SDS011;2271;49.464;11.070;2023-03-03T15:01:31;15.52;;;8.50;;
4517;SDS011;2271;49.464;11.070;2023-03-03T15:04:01;13.50;;;9.00;;
4517;SDS011;2271;49.464;11.070;2023-03-03T15:06:45;18.77;;;9.40;;
4517;SDS011;2271;49.464;11.070;2023-03-03T15:09:19;12.88;;;8.43;;
4517;SDS011;2271;49.464;11.070;2023-03-03T15:11:52;13.32;;;8.50;;
4517;SDS011;2271;49.464;11.070;2023-03-03T15:14:22;15.80;;;8.98;;
4517;SDS011;2271;49.464;11.070;2023-03-03T15:16:55;15.88;;;8.98;;
4517;SDS011;2271;49.464;11.070;2023-03-03T15:19:37;16.85;;;8.75;;
4517;SDS011;2271;49.464;11.070;2023-03-03T15:27:42;17.58;;;9.32;;
4517;SDS011;2271;49.464;11.070;2023-03-03T15:30:22;14.25;;;9.25;;
4517;SDS011;2271;49.464;11.070;2023-03-03T15:33:06;14.80;;;8.47;;
4517;SDS011;2271;49.464;11.070;2023-03-03T15:38:37;15.45;;;9.02;;
4517;SDS011;2271;49.464;11.070;2023-03-03T16:00:18;17.23;;;9.80;;
4517;SDS011;2271;49.464;11.070;2023-03-03T16:02:57;13.63;;;8.17;;
4517;SDS011;2271;49.464;11.070;2023-03-03T16:05:33;14.07;;;7.80;;
4517;SDS011;2271;49.464;11.070;2023-03-03T16:08:16;13.87;;;7.40;;
4517;SDS011;2271;49.464;11.070;2023-03-03T16:16:49;12.37;;;7.83;;
4517;SDS011;2271;49.464;11.070;2023-03-03T16:19:30;11.67;;;7.33;;
4517;SDS011;2271;49.464;11.070;2023-03-03T16:22:10;13.23;;;7.63;;
4517;SDS011;2271;49.464;11.070;2023-03-03T16:27:38;12.77;;;7.90;;
4517;SDS011;2271;49.464;11.070;2023-03-03T16:35:54;10.20;;;6.77;;
4517;SDS011;2271;49.464;11.070;2023-03-03T16:38:34;12.13;;;7.40;;
4517;SDS011;2271;49.464;11.070;2023-03-03T16:41:04;11.37;;;6.33;;
4517;SDS011;2271;49.464;11.070;2023-03-03T16:52:07;16.37;;;7.17;;
4517;SDS011;2271;49.464;11.070;2023-03-03T17:02:33;15.00;;;6.47;;
4517;SDS011;2271;49.464;11.070;2023-03-03T17:16:24;7.87;;;5.10;;
4517;SDS011;2271;49.464;11.070;2023-03-03T17:24:50;17.57;;;5.20;;
4517;SDS011;2271;49.464;11.070;2023-03-03T17:30:26;7.80;;;4.17;;
4517;SDS011;2271;49.464;11.070;2023-03-03T17:33:13;8.23;;;5.30;;
4517;SDS011;2271;49.464;11.070;2023-03-03T17:36:14;6.63;;;4.37;;
4517;SDS011;2271;49.464;11.070;2023-03-03T17:39:01;5.10;;;3.77;;
4517;SDS011;2271;49.464;11.070;2023-03-03T17:41:40;8.70;;;4.40;;
4517;SDS011;2271;49.464;11.070;2023-03-03T17:44:24;7.63;;;4.47;;
4517;SDS011;2271;49.464;11.070;2023-03-03T17:47:06;7.00;;;3.93;;
4517;SDS011;2271;49.464;11.070;2023-03-03T18:00:30;8.80;;;5.13;;
4517;SDS011;2271;49.464;11.070;2023-03-03T18:05:54;6.27;;;4.40;;
4517;SDS011;2271;49.464;11.070;2023-03-03T18:08:45;8.20;;;4.57;;
4517;SDS011;2271;49.464;11.070;2023-03-03T18:11:53;9.77;;;5.57;;
4517;SDS011;2271;49.464;11.070;2023-03-03T18:17:18;13.17;;;7.03;;
4517;SDS011;2271;49.464;11.070;2023-03-03T18:19:55;9.70;;;6.67;;
4517;SDS011;2271;49.464;11.070;2023-03-03T18:22:43;13.17;;;5.43;;
4517;SDS011;2271;49.464;11.070;2023-03-03T18:25:12;11.50;;;6.57;;
4517;SDS011;2271;49.464;11.070;2023-03-03T18:27:42;10.67;;;5.50;;
4517;SDS011;2271;49.464;11.070;2023-03-03T18:31:14;9.07;;;5.20;;
4517;SDS011;2271;49.464;11.070;2023-03-03T18:33:34;9.07;;;5.73;;
4517;SDS011;2271;49.464;11.070;2023-03-03T18:36:08;9.00;;;5.33;;
4517;SDS011;2271;49.464;11.070;2023-03-03T18:38:57;10.10;;;4.90;;
4517;SDS011;2271;49.464;11.070;2023-03-03T18:42:02;10.97;;;6.07;;
4517;SDS011;2271;49.464;11.070;2023-03-03T18:44:29;9.73;;;5.00;;
4517;SDS011;2271;49.464;11.070;2023-03-03T18:46:55;11.10;;;5.40;;
4517;SDS011;2271;49.464;11.070;2023-03-03T18:52:29;10.27;;;5.97;;
4517;SDS011;2271;49.464;11.070;2023-03-03T18:55:19;9.50;;;5.53;;
4517;SDS011;2271;49.464;11.070;2023-03-03T18:58:00;8.53;;;5.20;;
4517;SDS011;2271;49.464;11.070;2023-03-03T19:03:23;10.47;;;5.60;;
4517;SDS011;2271;49.464;11.070;2023-03-03T19:05:53;10.57;;;5.73;;
4517;SDS011;2271;49.464;11.070;2023-03-03T19:11:26;9.90;;;5.80;;
4517;SDS011;2271;49.464;11.070;2023-03-03T19:14:14;9.93;;;5.63;;
4517;SDS011;2271;49.464;11.070;2023-03-03T19:16:42;14.50;;;7.43;;
4517;SDS011;2271;49.464;11.070;2023-03-03T19:19:13;10.97;;;6.23;;
4517;SDS011;2271;49.464;11.070;2023-03-03T19:21:44;13.83;;;7.67;;
4517;SDS011;2271;49.464;11.070;2023-03-03T19:24:31;12.50;;;5.90;;
4517;SDS011;2271;49.464;11.070;2023-03-03T19:27:07;14.60;;;6.77;;
4517;SDS011;2271;49.464;11.070;2023-03-03T19:30:16;11.57;;;6.83;;
4517;SDS011;2271;49.464;11.070;2023-03-03T19:50:24;11.43;;;6.77;;
4517;SDS011;2271;49.464;11.070;2023-03-03T19:53:12;12.20;;;6.27;;
4517;SDS011;2271;49.464;11.070;2023-03-03T20:01:13;11.17;;;6.70;;
4517;SDS011;2271;49.464;11.070;2023-03-03T20:06:43;13.00;;;6.47;;
4517;SDS011;2271;49.464;11.070;2023-03-03T20:09:25;12.53;;;7.43;;
4517;SDS011;2271;49.464;11.070;2023-03-03T20:14:57;16.77;;;8.50;;
4517;SDS011;2271;49.464;11.070;2023-03-03T20:20:00;16.23;;;8.87;;
4517;SDS011;2271;49.464;11.070;2023-03-03T20:25:45;14.73;;;8.37;;
4517;SDS011;2271;49.464;11.070;2023-03-03T20:28:24;16.30;;;7.83;;
4517;SDS011;2271;49.464;11.070;2023-03-03T20:31:20;14.77;;;7.77;;
4517;SDS011;2271;49.464;11.070;2023-03-03T20:45:32;13.63;;;8.23;;
4517;SDS011;2271;49.464;11.070;2023-03-03T20:51:00;13.87;;;7.77;;
4517;SDS011;2271;49.464;11.070;2023-03-03T21:04:36;13.53;;;7.80;;
4517;SDS011;2271;49.464;11.070;2023-03-03T21:07:02;16.03;;;8.60;;
4517;SDS011;2271;49.464;11.070;2023-03-03T21:09:35;15.40;;;9.53;;
4517;SDS011;2271;49.464;11.070;2023-03-03T21:12:09;14.07;;;8.30;;
4517;SDS011;2271;49.464;11.070;2023-03-03T21:15:03;15.97;;;8.63;;
4517;SDS011;2271;49.464;11.070;2023-03-03T21:17:32;15.67;;;9.03;;
4517;SDS011;2271;49.464;11.070;2023-03-03T21:22:44;18.53;;;9.10;;